createdAt,value
2023-03-30T00:00:56.627Z,100413.66
2023-03-30T00:03:24.324Z,100404.56
2023-03-30T00:06:04.103Z,100400.56
2023-03-30T00:08:31.404Z,100389.91
2023-03-30T00:11:03.134Z,100396.81
2023-03-30T00:13:31.100Z,100398.06
2023-03-30T00:15:59.924Z,100393.50
2023-03-30T00:18:27.392Z,100388.53
2023-03-30T00:20:55.862Z,100382.31
2023-03-30T00:23:22.992Z,100385.00
2023-03-30T00:25:50.550Z,100385.38
2023-03-30T00:28:17.578Z,100377.16
2023-03-30T00:30:44.712Z,100376.59
2023-03-30T00:33:14.323Z,100366.19
2023-03-30T00:35:41.233Z,100366.59
2023-03-30T00:38:08.776Z,100360.66
2023-03-30T00:40:38.533Z,100358.28
2023-03-30T00:43:07.619Z,100350.19
2023-03-30T00:45:41.227Z,100351.28
2023-03-30T00:48:10.063Z,100353.84
2023-03-30T00:50:39.364Z,100347.06
2023-03-30T00:53:17.854Z,100337.38
2023-03-30T00:55:46.842Z,100323.84
2023-03-30T00:58:23.513Z,100321.09
2023-03-30T01:00:53.496Z,100326.03
2023-03-30T01:03:21.573Z,100320.97
2023-03-30T01:05:50.638Z,100315.72
2023-03-30T01:08:18.452Z,100305.94
2023-03-30T01:10:46.317Z,100291.34
2023-03-30T01:13:14.247Z,100282.88
2023-03-30T01:15:48.022Z,100273.13
2023-03-30T01:18:38.362Z,100266.09
2023-03-30T01:21:25.967Z,100263.00
2023-03-30T01:24:11.367Z,100259.56
2023-03-30T01:26:48.703Z,100248.28
2023-03-30T01:29:26.030Z,100246.19
2023-03-30T01:31:53.421Z,100240.53
2023-03-30T01:34:48.428Z,100231.47
2023-03-30T01:37:18.883Z,100243.50
2023-03-30T01:39:52.927Z,100236.31
2023-03-30T01:42:39.185Z,100233.09
2023-03-30T01:45:20.131Z,100222.78
2023-03-30T01:47:53.936Z,100222.16
2023-03-30T01:50:34.277Z,100218.88
2023-03-30T01:53:20.268Z,100216.47
2023-03-30T01:55:56.325Z,100219.06
2023-03-30T01:58:32.171Z,100207.75
2023-03-30T02:01:01.514Z,100201.59
2023-03-30T02:03:33.560Z,100200.88
2023-03-30T02:06:04.655Z,100194.72
2023-03-30T02:08:33.702Z,100201.09
2023-03-30T02:11:03.700Z,100197.94
2023-03-30T02:13:32.716Z,100176.66
2023-03-30T02:16:01.797Z,100182.19
2023-03-30T02:18:30.727Z,100175.09
2023-03-30T02:20:59.092Z,100182.19
2023-03-30T02:23:36.532Z,100174.50
2023-03-30T02:26:04.975Z,100154.56
2023-03-30T02:28:32.766Z,100154.56
2023-03-30T02:30:59.792Z,100149.53
2023-03-30T02:33:26.974Z,100142.50
2023-03-30T02:36:12.521Z,100138.84
2023-03-30T02:38:48.570Z,100134.28
2023-03-30T02:41:21.468Z,100120.84
2023-03-30T02:43:48.926Z,100111.91
2023-03-30T02:46:34.933Z,100116.16
2023-03-30T02:49:02.356Z,100103.97
2023-03-30T02:51:41.954Z,100099.16
2023-03-30T02:54:25.972Z,100106.75
2023-03-30T02:57:03.401Z,100108.22
2023-03-30T02:59:40.819Z,100110.38
2023-03-30T03:02:12.877Z,100104.13
2023-03-30T03:04:43.676Z,100099.66
2023-03-30T03:07:11.934Z,100095.34
2023-03-30T03:09:39.432Z,100085.13
2023-03-30T03:12:06.898Z,100072.41
2023-03-30T03:14:34.676Z,100072.78
2023-03-30T03:17:10.482Z,100067.56
2023-03-30T03:19:37.801Z,100053.00
2023-03-30T03:22:05.196Z,100057.53
2023-03-30T03:24:34.262Z,100053.41
2023-03-30T03:27:01.268Z,100051.13
2023-03-30T03:29:28.236Z,100048.28
2023-03-30T03:31:55.492Z,100042.50
2023-03-30T03:34:31.444Z,100033.81
2023-03-30T03:36:59.530Z,100026.72
2023-03-30T03:39:27.707Z,100023.63
2023-03-30T03:42:02.438Z,100003.84
2023-03-30T03:44:29.389Z,100008.16
2023-03-30T03:46:56.526Z,100010.66
2023-03-30T03:49:25.176Z,99994.72
2023-03-30T03:51:52.416Z,99988.00
2023-03-30T03:54:20.005Z,99979.03
2023-03-30T03:57:03.258Z,99979.31
2023-03-30T03:59:30.468Z,99988.25
2023-03-30T04:01:57.595Z,99990.75
2023-03-30T04:04:24.682Z,99983.75
2023-03-30T04:06:53.563Z,99984.84
2023-03-30T04:09:22.211Z,99977.69
2023-03-30T04:11:50.146Z,99973.97
2023-03-30T04:14:17.652Z,99968.75
2023-03-30T04:16:45.136Z,99964.47
2023-03-30T04:19:13.536Z,99964.13
2023-03-30T04:21:41.393Z,99954.53
2023-03-30T04:24:12.183Z,99945.44
2023-03-30T04:26:38.936Z,99938.44
2023-03-30T04:29:08.143Z,99942.75
2023-03-30T04:31:35.930Z,99942.63
2023-03-30T04:34:02.697Z,99939.56
2023-03-30T04:36:29.558Z,99935.94
2023-03-30T04:38:59.787Z,99937.47
2023-03-30T04:41:33.677Z,99936.09
2023-03-30T04:44:01.608Z,99936.00
2023-03-30T04:46:28.111Z,99934.47
2023-03-30T04:48:54.958Z,99925.78
2023-03-30T04:51:22.776Z,99918.53
2023-03-30T04:53:49.713Z,99914.44
2023-03-30T04:56:16.973Z,99918.03
2023-03-30T04:58:47.152Z,99910.72
2023-03-30T05:01:14.562Z,99898.84
2023-03-30T05:03:41.711Z,99903.75
2023-03-30T05:06:08.590Z,99904.03
2023-03-30T05:08:35.182Z,99888.91
2023-03-30T05:11:02.741Z,99911.97
2023-03-30T05:13:29.620Z,99900.44
2023-03-30T05:15:56.768Z,99890.41
2023-03-30T05:18:23.582Z,99900.25
2023-03-30T05:20:50.028Z,99882.13
2023-03-30T05:23:16.807Z,99879.06
2023-03-30T05:25:49.131Z,99875.22
2023-03-30T05:28:17.222Z,99865.38
2023-03-30T05:30:46.734Z,99861.34
2023-03-30T05:33:13.532Z,99861.50
2023-03-30T05:35:40.492Z,99865.34
2023-03-30T05:38:09.772Z,99866.56
2023-03-30T05:40:38.085Z,99875.56
2023-03-30T05:43:05.645Z,99861.22
2023-03-30T05:45:32.053Z,99866.78
2023-03-30T05:47:58.649Z,99867.53
2023-03-30T05:50:25.694Z,99862.41
2023-03-30T05:52:53.960Z,99862.03
2023-03-30T05:55:20.696Z,99858.72
2023-03-30T05:57:48.606Z,99862.22
2023-03-30T06:00:16.280Z,99863.75
2023-03-30T06:02:43.521Z,99868.81
2023-03-30T06:05:10.139Z,99874.84
2023-03-30T06:07:37.531Z,99877.19
2023-03-30T06:10:04.608Z,99887.31
2023-03-30T06:12:31.763Z,99887.66
2023-03-30T06:15:02.700Z,99889.75
2023-03-30T06:17:30.502Z,99884.78
2023-03-30T06:19:58.755Z,99886.91
2023-03-30T06:22:25.639Z,99882.13
2023-03-30T06:24:52.678Z,99877.69
2023-03-30T06:27:19.513Z,99870.47
2023-03-30T06:29:46.258Z,99872.31
2023-03-30T06:32:13.072Z,99864.72
2023-03-30T06:34:39.859Z,99874.38
2023-03-30T06:37:06.984Z,99873.72
2023-03-30T06:39:37.480Z,99858.41
2023-03-30T06:42:05.648Z,99847.97
2023-03-30T06:44:32.412Z,99847.91
2023-03-30T06:46:58.984Z,99848.81
2023-03-30T06:49:25.600Z,99856.63
2023-03-30T06:51:52.156Z,99854.06
2023-03-30T06:54:20.361Z,99855.72
2023-03-30T06:56:48.144Z,99850.09
2023-03-30T06:59:15.428Z,99846.13
2023-03-30T07:01:42.615Z,99849.38
2023-03-30T07:04:09.560Z,99845.75
2023-03-30T07:06:36.174Z,99841.63
2023-03-30T07:09:03.092Z,99854.25
2023-03-30T07:11:29.679Z,99853.22
2023-03-30T07:13:58.224Z,99848.25
2023-03-30T07:16:25.247Z,99842.28
2023-03-30T07:18:52.269Z,99842.38
2023-03-30T07:21:19.399Z,99841.44
2023-03-30T07:23:46.164Z,99838.41
2023-03-30T07:26:12.603Z,99847.41
2023-03-30T07:28:40.460Z,99845.50
2023-03-30T07:31:13.263Z,99831.13
2023-03-30T07:33:40.380Z,99833.84
2023-03-30T07:36:07.272Z,99835.00
2023-03-30T07:38:34.105Z,99838.53
2023-03-30T07:41:00.771Z,99832.66
2023-03-30T07:43:28.129Z,99838.09
2023-03-30T07:45:55.240Z,99845.22
2023-03-30T07:48:21.955Z,99840.22
2023-03-30T07:50:48.499Z,99838.84
2023-03-30T07:53:15.216Z,99839.25
2023-03-30T07:55:42.316Z,99832.63
2023-03-30T07:58:09.257Z,99834.69
2023-03-30T08:00:35.809Z,99825.72
2023-03-30T08:03:02.637Z,99828.13
2023-03-30T08:05:29.423Z,99832.41
2023-03-30T08:07:56.164Z,99840.72
2023-03-30T08:10:22.723Z,99829.31
2023-03-30T08:12:49.571Z,99836.47
2023-03-30T08:15:16.172Z,99838.75
2023-03-30T08:17:43.031Z,99837.84
2023-03-30T08:20:11.677Z,99845.50
2023-03-30T08:22:38.600Z,99843.25
2023-03-30T08:25:05.533Z,99853.28
2023-03-30T08:27:32.337Z,99841.22
2023-03-30T08:29:59.240Z,99832.41
2023-03-30T08:32:27.031Z,99835.44
2023-03-30T08:34:54.929Z,99836.41
2023-03-30T08:37:21.757Z,99833.84
2023-03-30T08:39:49.165Z,99827.66
2023-03-30T08:42:24.926Z,99835.63
2023-03-30T08:44:56.023Z,99836.81
2023-03-30T08:47:30.457Z,99835.31
2023-03-30T08:50:19.137Z,99821.25
2023-03-30T08:52:46.769Z,99824.69
2023-03-30T08:55:21.993Z,99823.25
2023-03-30T08:57:53.265Z,99816.94
2023-03-30T09:00:29.365Z,99820.56
2023-03-30T09:03:02.793Z,99821.88
2023-03-30T09:05:36.282Z,99801.69
2023-03-30T09:08:08.912Z,99796.50
2023-03-30T09:10:37.826Z,99801.47
2023-03-30T09:13:05.796Z,99814.84
2023-03-30T09:15:39.647Z,99807.16
2023-03-30T09:18:25.647Z,99806.38
2023-03-30T09:20:54.592Z,99814.00
2023-03-30T09:23:22.359Z,99805.31
2023-03-30T09:25:49.357Z,99793.91
2023-03-30T09:28:36.247Z,99796.78
2023-03-30T09:31:14.244Z,99791.84
2023-03-30T09:33:58.152Z,99785.19
2023-03-30T09:36:38.210Z,99794.63
2023-03-30T09:39:18.323Z,99790.13
2023-03-30T09:42:05.304Z,99789.25
2023-03-30T09:44:41.810Z,99803.69
2023-03-30T09:47:16.493Z,99805.22
2023-03-30T09:49:43.495Z,99803.13
2023-03-30T09:52:18.923Z,99808.22
2023-03-30T09:54:45.422Z,99809.63
2023-03-30T09:57:41.337Z,99805.38
2023-03-30T10:00:23.595Z,99807.41
2023-03-30T10:02:58.303Z,99809.53
2023-03-30T10:05:24.988Z,99809.53
2023-03-30T10:08:19.567Z,99806.69
2023-03-30T10:10:46.404Z,99806.25
2023-03-30T10:13:17.515Z,99804.28
2023-03-30T10:15:48.442Z,99795.25
2023-03-30T10:18:18.723Z,99795.94
2023-03-30T10:21:12.516Z,99785.34
2023-03-30T10:23:41.868Z,99797.31
2023-03-30T10:26:15.407Z,99783.53
2023-03-30T10:28:53.485Z,99778.16
2023-03-30T10:31:21.858Z,99804.22
2023-03-30T10:33:49.623Z,99800.53
2023-03-30T10:36:17.427Z,99807.38
2023-03-30T10:38:44.776Z,99802.78
2023-03-30T10:41:16.852Z,99808.19
2023-03-30T10:43:44.873Z,99803.97
2023-03-30T10:46:20.396Z,99793.47
2023-03-30T10:48:58.383Z,99792.00
2023-03-30T10:51:41.003Z,99793.53
2023-03-30T10:54:10.523Z,99787.31
2023-03-30T10:56:46.510Z,99788.22
2023-03-30T10:59:22.471Z,99774.75
2023-03-30T11:02:12.546Z,99783.13
2023-03-30T11:04:47.377Z,99772.19
2023-03-30T11:07:18.945Z,99779.22
2023-03-30T11:09:50.054Z,99782.69
2023-03-30T11:12:22.390Z,99782.47
2023-03-30T11:14:52.155Z,99781.59
2023-03-30T11:17:36.041Z,99767.25
2023-03-30T11:20:16.166Z,99766.06
2023-03-30T11:22:49.862Z,99755.91
2023-03-30T11:25:31.605Z,99769.06
2023-03-30T11:28:16.892Z,99778.66
2023-03-30T11:30:53.221Z,99758.34
2023-03-30T11:33:27.515Z,99760.34
2023-03-30T11:36:02.023Z,99764.97
2023-03-30T11:38:53.645Z,99763.34
2023-03-30T11:41:40.893Z,99751.25
2023-03-30T11:44:13.310Z,99752.44
2023-03-30T11:46:51.685Z,99751.16
2023-03-30T11:49:18.767Z,99758.41
2023-03-30T11:52:01.278Z,99761.19
2023-03-30T11:54:34.605Z,99763.69
2023-03-30T11:57:25.886Z,99765.53
2023-03-30T11:59:53.318Z,99763.03
2023-03-30T12:02:27.586Z,99771.13
2023-03-30T12:05:07.476Z,99769.75
2023-03-30T12:07:43.462Z,99778.59
2023-03-30T12:10:17.355Z,99785.25
2023-03-30T12:12:44.981Z,99789.06
2023-03-30T12:15:19.100Z,99794.78
2023-03-30T12:17:51.962Z,99786.44
2023-03-30T12:20:28.330Z,99791.25
2023-03-30T12:23:05.286Z,99797.44
2023-03-30T12:25:39.517Z,99819.53
2023-03-30T12:28:10.269Z,99842.97
2023-03-30T12:30:57.642Z,99844.06
2023-03-30T12:33:43.956Z,99841.78
2023-03-30T12:36:26.156Z,99845.16
2023-03-30T12:39:00.688Z,99825.25
2023-03-30T12:41:29.105Z,99836.59
2023-03-30T12:44:06.819Z,99830.66
2023-03-30T12:46:43.275Z,99844.25
2023-03-30T12:49:24.181Z,99847.88
2023-03-30T12:52:01.621Z,99847.75
2023-03-30T12:54:31.538Z,99855.06
2023-03-30T12:57:08.139Z,99849.63
2023-03-30T12:59:43.947Z,99855.03
2023-03-30T13:02:36.001Z,99850.53
2023-03-30T13:05:03.160Z,99851.53
2023-03-30T13:07:35.044Z,99852.81
2023-03-30T13:10:24.203Z,99843.78
2023-03-30T13:12:52.218Z,99837.88
2023-03-30T13:15:35.925Z,99830.75
2023-03-30T13:18:05.234Z,99856.63
2023-03-30T13:20:37.319Z,99834.72
2023-03-30T13:23:04.153Z,99842.78
2023-03-30T13:25:39.746Z,99843.09
2023-03-30T13:28:26.137Z,99837.13
2023-03-30T13:30:54.590Z,99840.59
2023-03-30T13:33:22.585Z,99852.78
2023-03-30T13:36:09.676Z,99843.31
2023-03-30T13:38:45.891Z,99862.34
2023-03-30T13:41:45.683Z,99865.88
2023-03-30T13:44:31.226Z,99856.16
2023-03-30T13:47:17.040Z,99854.06
2023-03-30T13:49:47.774Z,99860.22
2023-03-30T13:52:19.515Z,99860.38
2023-03-30T13:54:47.865Z,99870.59
2023-03-30T13:57:19.306Z,99862.63
2023-03-30T13:59:55.352Z,99871.03
2023-03-30T14:02:27.440Z,99863.75
2023-03-30T14:04:54.381Z,99854.50
2023-03-30T14:07:23.703Z,99861.09
2023-03-30T14:10:07.018Z,99859.88
2023-03-30T14:12:36.497Z,99861.78
2023-03-30T14:15:16.278Z,99859.91
2023-03-30T14:17:47.871Z,99854.69
2023-03-30T14:20:18.242Z,99861.19
2023-03-30T14:22:46.660Z,99852.66
2023-03-30T14:25:27.794Z,99857.34
2023-03-30T14:27:56.695Z,99855.06
2023-03-30T14:30:31.288Z,99857.44
2023-03-30T14:33:11.685Z,99865.16
2023-03-30T14:35:41.605Z,99868.06
2023-03-30T14:38:16.782Z,99877.50
2023-03-30T14:40:44.062Z,99881.22
2023-03-30T14:43:15.034Z,99877.06
2023-03-30T14:45:42.376Z,99903.31
2023-03-30T14:48:17.468Z,99890.34
2023-03-30T14:50:45.282Z,99890.28
2023-03-30T14:53:14.028Z,99882.78
2023-03-30T14:55:43.133Z,99880.16
2023-03-30T14:58:14.105Z,99881.75
2023-03-30T15:00:40.680Z,99874.25
2023-03-30T15:03:12.469Z,99871.03
2023-03-30T15:05:49.643Z,99879.84
2023-03-30T15:08:20.956Z,99877.69
2023-03-30T15:11:08.862Z,99880.03
2023-03-30T15:13:40.161Z,99876.66
2023-03-30T15:16:08.623Z,99880.28
2023-03-30T15:18:37.869Z,99885.13
2023-03-30T15:21:04.862Z,99907.28
2023-03-30T15:23:38.019Z,99907.13
2023-03-30T15:26:07.772Z,99898.66
2023-03-30T15:28:43.086Z,99906.13
2023-03-30T15:31:14.584Z,99911.50
2023-03-30T15:33:44.064Z,99913.47
2023-03-30T15:36:14.430Z,99900.19
2023-03-30T15:38:48.432Z,99903.66
2023-03-30T15:41:17.506Z,99898.19
2023-03-30T15:43:59.268Z,99907.88
2023-03-30T15:46:28.933Z,99900.50
2023-03-30T15:48:58.917Z,99898.25
2023-03-30T15:51:32.214Z,99895.03
2023-03-30T15:53:59.657Z,99900.28
2023-03-30T15:56:33.127Z,99897.63
2023-03-30T15:59:00.450Z,99904.28
2023-03-30T16:01:47.685Z,99905.78
2023-03-30T16:04:15.998Z,99899.22
2023-03-30T16:06:45.193Z,99894.19
2023-03-30T16:09:13.974Z,99889.00
2023-03-30T16:11:41.520Z,99894.91
2023-03-30T16:14:11.833Z,99895.44
2023-03-30T16:16:40.128Z,99888.53
2023-03-30T16:19:11.605Z,99898.41
2023-03-30T16:21:38.810Z,99895.38
2023-03-30T16:24:06.582Z,99893.09
2023-03-30T16:26:34.565Z,99890.72
2023-03-30T16:29:02.335Z,99891.00
2023-03-30T16:31:30.363Z,99884.53
2023-03-30T16:33:57.711Z,99893.00
2023-03-30T16:36:25.147Z,99890.16
2023-03-30T16:38:52.510Z,99886.22
2023-03-30T16:41:22.055Z,99881.06
2023-03-30T16:43:51.270Z,99883.09
2023-03-30T16:46:20.417Z,99894.38
2023-03-30T16:48:52.543Z,99890.47
2023-03-30T16:51:21.300Z,99892.88
2023-03-30T16:53:51.273Z,99885.78
2023-03-30T16:56:22.595Z,99890.47
2023-03-30T16:58:50.824Z,99895.97
2023-03-30T17:01:18.957Z,99903.50
2023-03-30T17:03:47.735Z,99905.03
2023-03-30T17:06:21.218Z,99897.69
2023-03-30T17:08:55.631Z,99912.19
2023-03-30T17:11:23.760Z,99912.34
2023-03-30T17:13:51.946Z,99911.47
2023-03-30T17:16:25.338Z,99919.16
2023-03-30T17:19:00.767Z,99915.91
2023-03-30T17:21:28.826Z,99904.56
2023-03-30T17:24:02.085Z,99913.03
2023-03-30T17:26:30.058Z,99902.66
2023-03-30T17:29:02.707Z,99915.50
2023-03-30T17:31:33.457Z,99909.50
2023-03-30T17:34:06.921Z,99903.78
2023-03-30T17:36:38.493Z,99915.03
2023-03-30T17:39:12.778Z,99900.28
2023-03-30T17:41:43.980Z,99896.69
2023-03-30T17:44:27.681Z,99902.16
2023-03-30T17:47:02.150Z,99918.97
2023-03-30T17:49:32.552Z,99923.28
2023-03-30T17:52:03.234Z,99915.13
2023-03-30T17:54:31.017Z,99914.44
2023-03-30T17:56:58.302Z,99914.75
2023-03-30T17:59:34.360Z,99915.97
2023-03-30T18:02:01.630Z,99923.78
2023-03-30T18:04:35.954Z,99907.84
2023-03-30T18:07:06.279Z,99907.66
2023-03-30T18:09:35.560Z,99907.91
2023-03-30T18:12:02.878Z,99908.34
2023-03-30T18:14:30.343Z,99910.34
2023-03-30T18:17:06.041Z,99910.81
2023-03-30T18:19:34.448Z,99910.69
2023-03-30T18:22:01.834Z,99909.53
2023-03-30T18:24:28.930Z,99913.41
2023-03-30T18:26:56.501Z,99909.50
2023-03-30T18:29:24.836Z,99924.78
2023-03-30T18:31:51.921Z,99921.88
2023-03-30T18:34:19.834Z,99917.00
2023-03-30T18:36:46.845Z,99934.09
2023-03-30T18:39:19.715Z,99941.59
2023-03-30T18:41:46.772Z,99931.13
2023-03-30T18:44:13.412Z,99937.38
2023-03-30T18:46:40.702Z,99935.09
2023-03-30T18:49:13.245Z,99931.91
2023-03-30T18:51:39.981Z,99931.59
2023-03-30T18:54:07.508Z,99934.53
2023-03-30T18:56:36.186Z,99923.50
2023-03-30T18:59:06.383Z,99933.63
2023-03-30T19:01:34.045Z,99932.19
2023-03-30T19:04:03.001Z,99931.84
2023-03-30T19:06:30.792Z,99934.53
2023-03-30T19:09:00.180Z,99928.34
2023-03-30T19:11:27.938Z,99929.06
2023-03-30T19:13:55.342Z,99937.03
2023-03-30T19:16:22.788Z,99929.69
2023-03-30T19:18:50.115Z,99942.31
2023-03-30T19:21:18.111Z,99944.16
2023-03-30T19:23:46.537Z,99948.31
2023-03-30T19:26:13.499Z,99940.81
2023-03-30T19:28:41.214Z,99941.25
2023-03-30T19:31:13.519Z,99934.44
2023-03-30T19:33:40.716Z,99931.69
2023-03-30T19:36:09.024Z,99928.97
2023-03-30T19:38:38.507Z,99928.03
2023-03-30T19:41:07.551Z,99937.03
2023-03-30T19:43:35.293Z,99931.78
2023-03-30T19:46:02.870Z,99920.91
2023-03-30T19:48:35.249Z,99924.09
2023-03-30T19:51:02.622Z,99927.34
2023-03-30T19:53:31.888Z,99931.97
2023-03-30T19:55:58.821Z,99920.06
2023-03-30T19:58:32.010Z,99937.63
2023-03-30T20:01:04.270Z,99926.22
2023-03-30T20:03:31.985Z,99925.09
2023-03-30T20:05:59.388Z,99934.22
2023-03-30T20:08:26.889Z,99921.22
2023-03-30T20:10:53.901Z,99922.50
2023-03-30T20:13:24.541Z,99922.31
2023-03-30T20:15:56.207Z,99918.16
2023-03-30T20:18:23.631Z,99917.56
2023-03-30T20:20:50.898Z,99911.63
2023-03-30T20:23:18.012Z,99913.09
2023-03-30T20:25:46.513Z,99913.25
2023-03-30T20:28:14.519Z,99912.31
2023-03-30T20:30:41.848Z,99904.72
2023-03-30T20:33:11.138Z,99908.66
2023-03-30T20:35:38.577Z,99913.50
2023-03-30T20:38:08.563Z,99912.97
2023-03-30T20:40:35.881Z,99917.50
2023-03-30T20:43:03.633Z,99918.66
2023-03-30T20:45:31.546Z,99907.78
2023-03-30T20:47:59.988Z,99904.72
2023-03-30T20:50:27.312Z,99919.00
2023-03-30T20:52:56.412Z,99906.72
2023-03-30T20:55:27.500Z,99915.06
2023-03-30T20:57:55.425Z,99940.91
2023-03-30T21:00:29.213Z,99935.81
2023-03-30T21:02:56.570Z,99932.53
2023-03-30T21:05:24.324Z,99933.31
2023-03-30T21:07:56.906Z,99933.13
2023-03-30T21:10:25.293Z,99934.78
2023-03-30T21:12:52.912Z,99930.09
2023-03-30T21:15:20.745Z,99936.78
2023-03-30T21:17:48.126Z,99927.94
2023-03-30T21:20:16.060Z,99936.47
2023-03-30T21:22:44.357Z,99924.53
2023-03-30T21:25:13.263Z,99925.09
2023-03-30T21:27:41.839Z,99924.38
2023-03-30T21:30:12.548Z,99923.91
2023-03-30T21:32:41.027Z,99925.53
2023-03-30T21:35:09.515Z,99928.38
2023-03-30T21:37:37.033Z,99923.09
2023-03-30T21:40:07.053Z,99912.00
2023-03-30T21:42:35.526Z,99914.44
2023-03-30T21:45:03.113Z,99915.75
2023-03-30T21:47:30.640Z,99912.91
2023-03-30T21:49:58.258Z,99909.28
2023-03-30T21:52:26.165Z,99909.03
2023-03-30T21:54:54.999Z,99907.91
2023-03-30T21:57:22.449Z,99900.72
2023-03-30T21:59:50.252Z,99905.78
2023-03-30T22:02:17.621Z,99899.22
2023-03-30T22:04:45.593Z,99897.03
2023-03-30T22:07:13.291Z,99898.44
2023-03-30T22:09:40.803Z,99890.56
2023-03-30T22:12:09.115Z,99891.28
2023-03-30T22:14:37.977Z,99880.56
2023-03-30T22:17:05.328Z,99879.94
2023-03-30T22:19:34.689Z,99896.88
2023-03-30T22:22:02.102Z,99887.41
2023-03-30T22:24:29.667Z,99875.84
2023-03-30T22:26:57.352Z,99872.66
2023-03-30T22:29:25.270Z,99885.00
2023-03-30T22:31:56.097Z,99888.00
2023-03-30T22:34:23.588Z,99883.56
2023-03-30T22:36:51.236Z,99884.97
2023-03-30T22:39:18.656Z,99879.25
2023-03-30T22:41:46.754Z,99882.22
2023-03-30T22:44:14.028Z,99886.38
2023-03-30T22:46:41.970Z,99890.34
2023-03-30T22:49:09.798Z,99885.22
2023-03-30T22:51:38.556Z,99873.34
2023-03-30T22:54:06.584Z,99878.53
2023-03-30T22:56:34.218Z,99857.75
2023-03-30T22:59:01.977Z,99862.50
2023-03-30T23:01:32.654Z,99678.00
2023-03-30T23:04:01.029Z,99863.78
2023-03-30T23:06:28.643Z,99861.50
2023-03-30T23:08:58.286Z,99862.16
2023-03-30T23:11:26.653Z,99856.06
2023-03-30T23:13:54.221Z,99862.97
2023-03-30T23:16:21.965Z,99850.56
2023-03-30T23:18:50.042Z,99854.78
2023-03-30T23:21:19.586Z,99855.13
2023-03-30T23:23:46.515Z,99853.38
2023-03-30T23:26:14.008Z,99843.44
2023-03-30T23:28:42.519Z,99842.47
2023-03-30T23:31:14.181Z,99846.38
2023-03-30T23:33:42.228Z,99843.06
2023-03-30T23:36:13.941Z,99843.31
2023-03-30T23:38:42.063Z,99844.38
2023-03-30T23:41:10.120Z,99848.13
2023-03-30T23:43:38.003Z,99835.31
2023-03-30T23:46:06.036Z,99839.66
2023-03-30T23:48:33.551Z,99837.00
2023-03-30T23:51:01.339Z,99830.91
2023-03-30T23:53:29.230Z,99830.22
2023-03-30T23:55:58.368Z,99835.94
2023-03-30T23:58:25.726Z,99827.44
